sensor_id;sensor_type;location;lat;lon;timestamp;P1;durP1;ratioP1;P2;durP2;ratioP2
57593;SDS011;43423;46.510;6.686;2022-12-07T00:03:33;45.67;;;17.45;;
57593;SDS011;43423;46.510;6.686;2022-12-07T00:06:00;47.17;;;17.75;;
57593;SDS011;43423;46.510;6.686;2022-12-07T00:08:26;51.20;;;19.05;;
57593;SDS011;43423;46.510;6.686;2022-12-07T00:10:52;47.50;;;18.05;;
57593;SDS011;43423;46.510;6.686;2022-12-07T00:13:18;49.20;;;18.73;;
57593;SDS011;43423;46.510;6.686;2022-12-07T00:15:44;46.00;;;17.75;;
57593;SDS011;43423;46.510;6.686;2022-12-07T00:18:10;49.13;;;17.88;;
57593;SDS011;43423;46.510;6.686;2022-12-07T00:20:35;47.60;;;18.05;;
57593;SDS011;43423;46.510;6.686;2022-12-07T00:23:01;48.15;;;17.88;;
57593;SDS011;43423;46.510;6.686;2022-12-07T00:25:27;43.53;;;18.15;;
57593;SDS011;43423;46.510;6.686;2022-12-07T00:27:53;46.22;;;18.23;;
57593;SDS011;43423;46.510;6.686;2022-12-07T00:30:21;41.97;;;17.58;;
57593;SDS011;43423;46.510;6.686;2022-12-07T00:32:46;47.85;;;18.25;;
57593;SDS011;43423;46.510;6.686;2022-12-07T00:35:12;51.10;;;18.60;;
57593;SDS011;43423;46.510;6.686;2022-12-07T00:37:38;52.38;;;19.50;;
57593;SDS011;43423;46.510;6.686;2022-12-07T00:40:04;46.78;;;18.50;;
57593;SDS011;43423;46.510;6.686;2022-12-07T00:42:30;45.65;;;17.88;;
57593;SDS011;43423;46.510;6.686;2022-12-07T00:44:56;45.65;;;18.52;;
57593;SDS011;43423;46.510;6.686;2022-12-07T00:47:21;49.40;;;20.13;;
57593;SDS011;43423;46.510;6.686;2022-12-07T00:49:47;53.92;;;19.65;;
57593;SDS011;43423;46.510;6.686;2022-12-07T00:52:13;50.75;;;19.17;;
57593;SDS011;43423;46.510;6.686;2022-12-07T00:54:39;48.78;;;18.98;;
57593;SDS011;43423;46.510;6.686;2022-12-07T00:57:05;49.40;;;18.67;;
57593;SDS011;43423;46.510;6.686;2022-12-07T00:59:31;45.53;;;18.13;;
57593;SDS011;43423;46.510;6.686;2022-12-07T01:01:56;50.88;;;18.13;;
57593;SDS011;43423;46.510;6.686;2022-12-07T01:04:22;53.90;;;18.42;;
57593;SDS011;43423;46.510;6.686;2022-12-07T01:06:47;44.97;;;17.80;;
57593;SDS011;43423;46.510;6.686;2022-12-07T01:09:13;46.95;;;17.63;;
57593;SDS011;43423;46.510;6.686;2022-12-07T01:11:38;51.92;;;17.95;;
57593;SDS011;43423;46.510;6.686;2022-12-07T01:14:04;43.13;;;17.38;;
57593;SDS011;43423;46.510;6.686;2022-12-07T01:16:30;46.42;;;17.48;;
57593;SDS011;43423;46.510;6.686;2022-12-07T01:18:58;48.25;;;18.40;;
57593;SDS011;43423;46.510;6.686;2022-12-07T01:21:25;45.60;;;17.58;;
57593;SDS011;43423;46.510;6.686;2022-12-07T01:23:53;47.60;;;17.38;;
57593;SDS011;43423;46.510;6.686;2022-12-07T01:26:20;41.97;;;16.55;;
57593;SDS011;43423;46.510;6.686;2022-12-07T01:28:48;45.65;;;17.67;;
57593;SDS011;43423;46.510;6.686;2022-12-07T01:31:15;41.53;;;16.25;;
57593;SDS011;43423;46.510;6.686;2022-12-07T01:33:43;42.38;;;17.67;;
57593;SDS011;43423;46.510;6.686;2022-12-07T01:36:19;45.95;;;18.55;;
57593;SDS011;43423;46.510;6.686;2022-12-07T01:38:48;40.70;;;16.60;;
57593;SDS011;43423;46.510;6.686;2022-12-07T01:41:16;47.15;;;17.25;;
57593;SDS011;43423;46.510;6.686;2022-12-07T01:49:24;46.45;;;17.10;;
57593;SDS011;43423;46.510;6.686;2022-12-07T01:51:57;48.78;;;17.50;;
57593;SDS011;43423;46.510;6.686;2022-12-07T01:54:27;47.72;;;17.42;;
57593;SDS011;43423;46.510;6.686;2022-12-07T01:56:53;43.40;;;16.55;;
57593;SDS011;43423;46.510;6.686;2022-12-07T01:59:22;36.00;;;14.00;;
57593;SDS011;43423;46.510;6.686;2022-12-07T02:01:50;46.58;;;16.70;;
57593;SDS011;43423;46.510;6.686;2022-12-07T02:04:16;37.65;;;15.27;;
57593;SDS011;43423;46.510;6.686;2022-12-07T02:06:43;39.88;;;15.23;;
57593;SDS011;43423;46.510;6.686;2022-12-07T02:09:11;39.67;;;15.25;;
57593;SDS011;43423;46.510;6.686;2022-12-07T02:11:37;40.40;;;15.68;;
57593;SDS011;43423;46.510;6.686;2022-12-07T02:14:03;41.25;;;15.63;;
57593;SDS011;43423;46.510;6.686;2022-12-07T02:16:38;39.67;;;15.68;;
57593;SDS011;43423;46.510;6.686;2022-12-07T02:25:04;34.47;;;14.00;;
57593;SDS011;43423;46.510;6.686;2022-12-07T02:27:46;39.40;;;15.65;;
57593;SDS011;43423;46.510;6.686;2022-12-07T02:30:17;39.90;;;15.20;;
57593;SDS011;43423;46.510;6.686;2022-12-07T02:32:59;33.25;;;14.52;;
57593;SDS011;43423;46.510;6.686;2022-12-07T02:35:38;34.40;;;14.00;;
57593;SDS011;43423;46.510;6.686;2022-12-07T02:38:23;43.38;;;15.38;;
57593;SDS011;43423;46.510;6.686;2022-12-07T02:41:07;33.13;;;13.93;;
57593;SDS011;43423;46.510;6.686;2022-12-07T02:43:54;32.92;;;14.00;;
57593;SDS011;43423;46.510;6.686;2022-12-07T02:46:27;34.28;;;14.82;;
57593;SDS011;43423;46.510;6.686;2022-12-07T02:48:57;38.10;;;14.35;;
57593;SDS011;43423;46.510;6.686;2022-12-07T02:51:24;37.80;;;14.77;;
57593;SDS011;43423;46.510;6.686;2022-12-07T02:53:50;38.67;;;15.25;;
57593;SDS011;43423;46.510;6.686;2022-12-07T03:04:00;33.50;;;13.27;;
57593;SDS011;43423;46.510;6.686;2022-12-07T03:06:39;34.30;;;14.80;;
57593;SDS011;43423;46.510;6.686;2022-12-07T03:09:17;34.72;;;13.77;;
57593;SDS011;43423;46.510;6.686;2022-12-07T03:11:50;36.33;;;13.38;;
57593;SDS011;43423;46.510;6.686;2022-12-07T03:14:21;38.30;;;14.30;;
57593;SDS011;43423;46.510;6.686;2022-12-07T03:19:29;39.28;;;14.77;;
57593;SDS011;43423;46.510;6.686;2022-12-07T03:22:00;33.72;;;13.95;;
57593;SDS011;43423;46.510;6.686;2022-12-07T03:24:34;37.92;;;15.18;;
57593;SDS011;43423;46.510;6.686;2022-12-07T03:29:49;36.00;;;15.02;;
57593;SDS011;43423;46.510;6.686;2022-12-07T03:35:16;35.85;;;14.77;;
57593;SDS011;43423;46.510;6.686;2022-12-07T03:37:49;32.20;;;13.65;;
57593;SDS011;43423;46.510;6.686;2022-12-07T03:40:25;34.45;;;14.38;;
57593;SDS011;43423;46.510;6.686;2022-12-07T03:42:56;35.25;;;13.75;;
57593;SDS011;43423;46.510;6.686;2022-12-07T03:45:26;39.05;;;14.90;;
57593;SDS011;43423;46.510;6.686;2022-12-07T03:50:49;34.53;;;13.73;;
57593;SDS011;43423;46.510;6.686;2022-12-07T03:53:29;40.97;;;14.75;;
57593;SDS011;43423;46.510;6.686;2022-12-07T03:56:05;43.40;;;15.02;;
57593;SDS011;43423;46.510;6.686;2022-12-07T03:58:33;33.88;;;13.13;;
57593;SDS011;43423;46.510;6.686;2022-12-07T04:00:59;36.47;;;13.55;;
57593;SDS011;43423;46.510;6.686;2022-12-07T04:03:25;37.13;;;13.90;;
57593;SDS011;43423;46.510;6.686;2022-12-07T04:05:50;36.13;;;13.73;;
57593;SDS011;43423;46.510;6.686;2022-12-07T04:08:16;37.75;;;14.02;;
57593;SDS011;43423;46.510;6.686;2022-12-07T04:10:42;34.28;;;14.25;;
57593;SDS011;43423;46.510;6.686;2022-12-07T04:13:07;32.58;;;13.18;;
57593;SDS011;43423;46.510;6.686;2022-12-07T04:15:33;35.72;;;13.82;;
57593;SDS011;43423;46.510;6.686;2022-12-07T04:17:58;33.97;;;14.13;;
57593;SDS011;43423;46.510;6.686;2022-12-07T04:20:24;34.53;;;14.10;;
57593;SDS011;43423;46.510;6.686;2022-12-07T04:22:50;32.05;;;13.98;;
57593;SDS011;43423;46.510;6.686;2022-12-07T04:25:15;33.03;;;12.90;;
57593;SDS011;43423;46.510;6.686;2022-12-07T04:27:41;36.50;;;14.30;;
57593;SDS011;43423;46.510;6.686;2022-12-07T04:30:07;31.90;;;12.60;;
57593;SDS011;43423;46.510;6.686;2022-12-07T04:32:33;35.42;;;14.20;;
57593;SDS011;43423;46.510;6.686;2022-12-07T04:34:59;37.28;;;13.98;;
57593;SDS011;43423;46.510;6.686;2022-12-07T04:37:24;32.78;;;12.18;;
57593;SDS011;43423;46.510;6.686;2022-12-07T04:39:50;34.55;;;12.50;;
57593;SDS011;43423;46.510;6.686;2022-12-07T04:42:15;32.63;;;13.52;;
57593;SDS011;43423;46.510;6.686;2022-12-07T04:44:41;37.55;;;14.95;;
57593;SDS011;43423;46.510;6.686;2022-12-07T04:47:07;33.05;;;14.27;;
57593;SDS011;43423;46.510;6.686;2022-12-07T04:49:32;36.38;;;14.10;;
57593;SDS011;43423;46.510;6.686;2022-12-07T04:51:58;37.15;;;13.50;;
57593;SDS011;43423;46.510;6.686;2022-12-07T04:54:24;36.85;;;14.15;;
57593;SDS011;43423;46.510;6.686;2022-12-07T04:56:49;35.33;;;14.32;;
57593;SDS011;43423;46.510;6.686;2022-12-07T04:59:15;31.77;;;13.02;;
57593;SDS011;43423;46.510;6.686;2022-12-07T05:01:42;42.28;;;15.30;;
57593;SDS011;43423;46.510;6.686;2022-12-07T05:04:08;40.78;;;15.18;;
57593;SDS011;43423;46.510;6.686;2022-12-07T05:06:34;35.45;;;13.27;;
57593;SDS011;43423;46.510;6.686;2022-12-07T05:09:00;35.45;;;14.73;;
57593;SDS011;43423;46.510;6.686;2022-12-07T05:11:26;45.13;;;14.73;;
57593;SDS011;43423;46.510;6.686;2022-12-07T05:14:04;35.85;;;14.93;;
57593;SDS011;43423;46.510;6.686;2022-12-07T05:16:32;33.45;;;15.10;;
57593;SDS011;43423;46.510;6.686;2022-12-07T05:18:58;35.13;;;13.93;;
57593;SDS011;43423;46.510;6.686;2022-12-07T05:21:23;35.80;;;13.77;;
57593;SDS011;43423;46.510;6.686;2022-12-07T05:23:49;33.08;;;14.07;;
57593;SDS011;43423;46.510;6.686;2022-12-07T05:26:15;32.13;;;13.65;;
57593;SDS011;43423;46.510;6.686;2022-12-07T05:28:41;33.88;;;12.93;;
57593;SDS011;43423;46.510;6.686;2022-12-07T05:31:07;35.97;;;14.25;;
57593;SDS011;43423;46.510;6.686;2022-12-07T05:33:33;30.88;;;12.68;;
57593;SDS011;43423;46.510;6.686;2022-12-07T05:35:58;31.98;;;14.13;;
57593;SDS011;43423;46.510;6.686;2022-12-07T05:38:24;35.00;;;14.02;;
57593;SDS011;43423;46.510;6.686;2022-12-07T05:40:50;35.75;;;14.23;;
57593;SDS011;43423;46.510;6.686;2022-12-07T05:43:16;33.75;;;14.00;;
57593;SDS011;43423;46.510;6.686;2022-12-07T05:45:42;35.60;;;13.55;;
57593;SDS011;43423;46.510;6.686;2022-12-07T05:48:07;38.72;;;14.30;;
57593;SDS011;43423;46.510;6.686;2022-12-07T05:50:33;37.25;;;14.07;;
57593;SDS011;43423;46.510;6.686;2022-12-07T05:52:58;37.22;;;15.25;;
57593;SDS011;43423;46.510;6.686;2022-12-07T05:55:24;43.13;;;15.25;;
57593;SDS011;43423;46.510;6.686;2022-12-07T05:57:49;39.95;;;15.40;;
57593;SDS011;43423;46.510;6.686;2022-12-07T06:00:34;42.25;;;14.98;;
57593;SDS011;43423;46.510;6.686;2022-12-07T06:02:59;40.90;;;14.60;;
57593;SDS011;43423;46.510;6.686;2022-12-07T06:05:25;44.00;;;17.83;;
57593;SDS011;43423;46.510;6.686;2022-12-07T06:07:50;42.92;;;16.83;;
57593;SDS011;43423;46.510;6.686;2022-12-07T06:10:16;41.35;;;17.13;;
57593;SDS011;43423;46.510;6.686;2022-12-07T06:12:42;37.50;;;15.10;;
57593;SDS011;43423;46.510;6.686;2022-12-07T06:15:09;40.75;;;15.85;;
57593;SDS011;43423;46.510;6.686;2022-12-07T06:17:35;39.90;;;15.63;;
57593;SDS011;43423;46.510;6.686;2022-12-07T06:20:02;41.20;;;15.90;;
57593;SDS011;43423;46.510;6.686;2022-12-07T06:22:28;38.47;;;15.82;;
57593;SDS011;43423;46.510;6.686;2022-12-07T06:24:54;40.60;;;15.85;;
57593;SDS011;43423;46.510;6.686;2022-12-07T06:27:19;41.38;;;15.85;;
57593;SDS011;43423;46.510;6.686;2022-12-07T06:29:45;41.00;;;15.57;;
57593;SDS011;43423;46.510;6.686;2022-12-07T06:32:10;44.15;;;15.88;;
57593;SDS011;43423;46.510;6.686;2022-12-07T06:34:37;43.08;;;16.85;;
57593;SDS011;43423;46.510;6.686;2022-12-07T06:37:02;43.15;;;16.92;;
57593;SDS011;43423;46.510;6.686;2022-12-07T06:39:28;40.17;;;15.55;;
57593;SDS011;43423;46.510;6.686;2022-12-07T06:41:55;43.55;;;16.95;;
57593;SDS011;43423;46.510;6.686;2022-12-07T06:44:21;38.75;;;14.60;;
57593;SDS011;43423;46.510;6.686;2022-12-07T06:46:47;38.72;;;15.55;;
57593;SDS011;43423;46.510;6.686;2022-12-07T06:49:14;37.55;;;14.95;;
57593;SDS011;43423;46.510;6.686;2022-12-07T06:51:39;48.80;;;18.00;;
57593;SDS011;43423;46.510;6.686;2022-12-07T06:54:10;43.72;;;16.02;;
57593;SDS011;43423;46.510;6.686;2022-12-07T06:56:38;40.50;;;16.52;;
57593;SDS011;43423;46.510;6.686;2022-12-07T06:59:04;43.67;;;16.40;;
57593;SDS011;43423;46.510;6.686;2022-12-07T07:01:31;38.58;;;15.52;;
57593;SDS011;43423;46.510;6.686;2022-12-07T07:03:58;42.53;;;16.20;;
57593;SDS011;43423;46.510;6.686;2022-12-07T07:06:23;44.45;;;15.77;;
57593;SDS011;43423;46.510;6.686;2022-12-07T07:08:49;37.70;;;15.20;;
57593;SDS011;43423;46.510;6.686;2022-12-07T07:11:15;40.55;;;14.88;;
57593;SDS011;43423;46.510;6.686;2022-12-07T07:13:41;35.70;;;15.48;;
57593;SDS011;43423;46.510;6.686;2022-12-07T07:16:07;38.47;;;15.63;;
57593;SDS011;43423;46.510;6.686;2022-12-07T07:18:33;37.30;;;15.02;;
57593;SDS011;43423;46.510;6.686;2022-12-07T07:20:58;43.20;;;15.55;;
57593;SDS011;43423;46.510;6.686;2022-12-07T07:23:24;38.10;;;15.35;;
57593;SDS011;43423;46.510;6.686;2022-12-07T07:25:50;39.45;;;16.15;;
57593;SDS011;43423;46.510;6.686;2022-12-07T07:28:16;36.60;;;14.43;;
57593;SDS011;43423;46.510;6.686;2022-12-07T07:30:42;42.35;;;15.80;;
57593;SDS011;43423;46.510;6.686;2022-12-07T07:33:09;40.50;;;15.10;;
57593;SDS011;43423;46.510;6.686;2022-12-07T07:35:35;38.60;;;14.93;;
57593;SDS011;43423;46.510;6.686;2022-12-07T07:38:01;39.00;;;15.77;;
57593;SDS011;43423;46.510;6.686;2022-12-07T07:40:27;46.08;;;15.88;;
57593;SDS011;43423;46.510;6.686;2022-12-07T07:42:54;40.45;;;14.68;;
57593;SDS011;43423;46.510;6.686;2022-12-07T07:45:20;41.28;;;15.65;;
57593;SDS011;43423;46.510;6.686;2022-12-07T07:47:48;42.22;;;15.63;;
57593;SDS011;43423;46.510;6.686;2022-12-07T07:50:14;38.35;;;15.35;;
57593;SDS011;43423;46.510;6.686;2022-12-07T07:52:41;38.95;;;15.20;;
57593;SDS011;43423;46.510;6.686;2022-12-07T07:55:07;38.88;;;14.85;;
57593;SDS011;43423;46.510;6.686;2022-12-07T07:57:34;42.95;;;15.80;;
57593;SDS011;43423;46.510;6.686;2022-12-07T08:00:03;50.17;;;16.35;;
57593;SDS011;43423;46.510;6.686;2022-12-07T08:02:29;39.60;;;16.30;;
57593;SDS011;43423;46.510;6.686;2022-12-07T08:04:55;37.85;;;13.77;;
57593;SDS011;43423;46.510;6.686;2022-12-07T08:07:21;39.78;;;15.88;;
57593;SDS011;43423;46.510;6.686;2022-12-07T08:09:46;42.38;;;15.18;;
57593;SDS011;43423;46.510;6.686;2022-12-07T08:12:12;37.00;;;13.98;;
57593;SDS011;43423;46.510;6.686;2022-12-07T08:14:37;32.75;;;12.85;;
57593;SDS011;43423;46.510;6.686;2022-12-07T08:17:03;32.28;;;13.02;;
57593;SDS011;43423;46.510;6.686;2022-12-07T08:19:28;29.48;;;11.30;;
57593;SDS011;43423;46.510;6.686;2022-12-07T08:21:55;30.40;;;12.10;;
57593;SDS011;43423;46.510;6.686;2022-12-07T08:24:21;29.65;;;11.73;;
57593;SDS011;43423;46.510;6.686;2022-12-07T08:26:47;28.25;;;10.65;;
57593;SDS011;43423;46.510;6.686;2022-12-07T08:29:13;24.55;;;10.50;;
57593;SDS011;43423;46.510;6.686;2022-12-07T08:31:40;29.40;;;10.63;;
57593;SDS011;43423;46.510;6.686;2022-12-07T08:34:05;32.70;;;11.50;;
57593;SDS011;43423;46.510;6.686;2022-12-07T08:36:31;26.85;;;10.20;;
57593;SDS011;43423;46.510;6.686;2022-12-07T08:38:56;30.35;;;11.82;;
57593;SDS011;43423;46.510;6.686;2022-12-07T08:41:22;29.50;;;11.18;;
57593;SDS011;43423;46.510;6.686;2022-12-07T08:43:47;35.40;;;12.98;;
57593;SDS011;43423;46.510;6.686;2022-12-07T08:46:18;31.70;;;11.38;;
57593;SDS011;43423;46.510;6.686;2022-12-07T08:48:48;31.38;;;13.48;;
57593;SDS011;43423;46.510;6.686;2022-12-07T08:51:15;28.88;;;11.02;;
57593;SDS011;43423;46.510;6.686;2022-12-07T08:53:41;26.27;;;10.15;;
57593;SDS011;43423;46.510;6.686;2022-12-07T08:56:08;19.27;;;8.30;;
57593;SDS011;43423;46.510;6.686;2022-12-07T08:58:34;21.48;;;8.55;;
57593;SDS011;43423;46.510;6.686;2022-12-07T09:01:02;20.08;;;8.30;;
57593;SDS011;43423;46.510;6.686;2022-12-07T09:03:28;26.55;;;9.60;;
57593;SDS011;43423;46.510;6.686;2022-12-07T09:05:54;19.02;;;7.57;;
57593;SDS011;43423;46.510;6.686;2022-12-07T09:08:20;21.33;;;8.13;;
57593;SDS011;43423;46.510;6.686;2022-12-07T09:10:47;21.58;;;7.93;;
57593;SDS011;43423;46.510;6.686;2022-12-07T09:13:13;18.88;;;7.75;;
57593;SDS011;43423;46.510;6.686;2022-12-07T09:15:38;20.38;;;8.13;;
57593;SDS011;43423;46.510;6.686;2022-12-07T09:18:04;24.27;;;9.05;;
57593;SDS011;43423;46.510;6.686;2022-12-07T09:20:30;22.77;;;9.45;;
57593;SDS011;43423;46.510;6.686;2022-12-07T09:22:55;21.27;;;9.40;;
57593;SDS011;43423;46.510;6.686;2022-12-07T09:25:21;23.25;;;9.85;;
57593;SDS011;43423;46.510;6.686;2022-12-07T09:27:46;21.48;;;8.80;;
57593;SDS011;43423;46.510;6.686;2022-12-07T09:30:12;23.13;;;9.07;;
57593;SDS011;43423;46.510;6.686;2022-12-07T09:32:38;22.70;;;8.93;;
57593;SDS011;43423;46.510;6.686;2022-12-07T09:35:04;18.83;;;8.43;;
57593;SDS011;43423;46.510;6.686;2022-12-07T09:37:29;18.83;;;8.02;;
57593;SDS011;43423;46.510;6.686;2022-12-07T09:40:00;17.13;;;7.72;;
57593;SDS011;43423;46.510;6.686;2022-12-07T09:42:30;14.02;;;6.25;;
57593;SDS011;43423;46.510;6.686;2022-12-07T09:44:59;13.65;;;5.72;;
57593;SDS011;43423;46.510;6.686;2022-12-07T09:47:26;17.40;;;6.43;;
57593;SDS011;43423;46.510;6.686;2022-12-07T09:49:54;16.88;;;6.63;;
57593;SDS011;43423;46.510;6.686;2022-12-07T09:52:27;15.60;;;6.65;;
57593;SDS011;43423;46.510;6.686;2022-12-07T09:54:54;16.88;;;6.75;;
57593;SDS011;43423;46.510;6.686;2022-12-07T09:57:21;17.73;;;6.50;;
57593;SDS011;43423;46.510;6.686;2022-12-07T09:59:55;18.95;;;7.18;;
57593;SDS011;43423;46.510;6.686;2022-12-07T10:04:50;15.70;;;6.88;;
57593;SDS011;43423;46.510;6.686;2022-12-07T10:07:16;14.65;;;6.70;;
57593;SDS011;43423;46.510;6.686;2022-12-07T10:09:41;22.20;;;7.97;;
57593;SDS011;43423;46.510;6.686;2022-12-07T10:12:09;21.15;;;8.65;;
57593;SDS011;43423;46.510;6.686;2022-12-07T10:14:48;17.15;;;7.25;;
57593;SDS011;43423;46.510;6.686;2022-12-07T10:17:38;15.73;;;7.40;;
57593;SDS011;43423;46.510;6.686;2022-12-07T10:23:12;19.58;;;7.95;;
57593;SDS011;43423;46.510;6.686;2022-12-07T10:25:42;20.38;;;9.25;;
57593;SDS011;43423;46.510;6.686;2022-12-07T10:30:45;27.25;;;8.88;;
57593;SDS011;43423;46.510;6.686;2022-12-07T10:36:16;21.98;;;9.98;;
57593;SDS011;43423;46.510;6.686;2022-12-07T10:38:46;24.33;;;9.95;;
57593;SDS011;43423;46.510;6.686;2022-12-07T10:41:14;24.45;;;9.30;;
57593;SDS011;43423;46.510;6.686;2022-12-07T10:43:51;21.98;;;8.55;;
57593;SDS011;43423;46.510;6.686;2022-12-07T10:54:27;24.77;;;10.00;;
57593;SDS011;43423;46.510;6.686;2022-12-07T10:56:58;21.15;;;9.32;;
57593;SDS011;43423;46.510;6.686;2022-12-07T11:05:14;16.70;;;8.48;;
57593;SDS011;43423;46.510;6.686;2022-12-07T11:07:54;22.27;;;8.98;;
57593;SDS011;43423;46.510;6.686;2022-12-07T11:24:03;21.67;;;8.98;;
57593;SDS011;43423;46.510;6.686;2022-12-07T11:26:39;17.70;;;7.40;;
57593;SDS011;43423;46.510;6.686;2022-12-07T11:34:36;21.33;;;8.38;;
57593;SDS011;43423;46.510;6.686;2022-12-07T11:37:13;22.58;;;9.00;;
57593;SDS011;43423;46.510;6.686;2022-12-07T11:39:48;16.45;;;7.80;;
57593;SDS011;43423;46.510;6.686;2022-12-07T11:45:09;22.42;;;8.88;;
57593;SDS011;43423;46.510;6.686;2022-12-07T11:47:52;20.83;;;8.77;;
57593;SDS011;43423;46.510;6.686;2022-12-07T11:50:25;18.92;;;8.65;;
57593;SDS011;43423;46.510;6.686;2022-12-07T11:53:10;19.40;;;9.20;;
57593;SDS011;43423;46.510;6.686;2022-12-07T12:06:32;22.92;;;9.02;;
57593;SDS011;43423;46.510;6.686;2022-12-07T12:14:56;21.88;;;9.52;;
57593;SDS011;43423;46.510;6.686;2022-12-07T12:20:53;26.33;;;9.23;;
57593;SDS011;43423;46.510;6.686;2022-12-07T12:23:24;25.58;;;10.00;;
57593;SDS011;43423;46.510;6.686;2022-12-07T12:26:05;29.20;;;11.43;;
57593;SDS011;43423;46.510;6.686;2022-12-07T12:33:52;24.38;;;9.95;;
57593;SDS011;43423;46.510;6.686;2022-12-07T12:44:01;20.80;;;8.93;;
57593;SDS011;43423;46.510;6.686;2022-12-07T12:51:41;28.90;;;10.43;;
57593;SDS011;43423;46.510;6.686;2022-12-07T12:54:14;30.17;;;11.15;;
57593;SDS011;43423;46.510;6.686;2022-12-07T13:05:01;28.95;;;11.13;;
57593;SDS011;43423;46.510;6.686;2022-12-07T13:13:00;25.90;;;10.85;;
57593;SDS011;43423;46.510;6.686;2022-12-07T13:15:36;24.88;;;9.77;;
57593;SDS011;43423;46.510;6.686;2022-12-07T13:18:04;25.52;;;10.10;;
57593;SDS011;43423;46.510;6.686;2022-12-07T13:21:00;29.77;;;10.68;;
57593;SDS011;43423;46.510;6.686;2022-12-07T13:28:43;27.13;;;10.45;;
57593;SDS011;43423;46.510;6.686;2022-12-07T13:33:54;24.88;;;10.30;;
57593;SDS011;43423;46.510;6.686;2022-12-07T13:36:24;24.77;;;10.05;;
57593;SDS011;43423;46.510;6.686;2022-12-07T13:38:53;27.13;;;9.88;;
57593;SDS011;43423;46.510;6.686;2022-12-07T13:41:27;22.35;;;9.18;;
57593;SDS011;43423;46.510;6.686;2022-12-07T13:46:30;23.42;;;9.20;;
57593;SDS011;43423;46.510;6.686;2022-12-07T13:49:15;17.58;;;7.90;;
57593;SDS011;43423;46.510;6.686;2022-12-07T13:51:43;20.08;;;8.43;;
57593;SDS011;43423;46.510;6.686;2022-12-07T13:54:09;21.50;;;8.55;;
57593;SDS011;43423;46.510;6.686;2022-12-07T13:56:37;18.98;;;9.05;;
57593;SDS011;43423;46.510;6.686;2022-12-07T13:59:15;22.88;;;9.18;;
57593;SDS011;43423;46.510;6.686;2022-12-07T14:01:47;20.55;;;8.07;;
57593;SDS011;43423;46.510;6.686;2022-12-07T14:04:18;19.27;;;8.48;;
57593;SDS011;43423;46.510;6.686;2022-12-07T14:06:47;19.73;;;8.20;;
57593;SDS011;43423;46.510;6.686;2022-12-07T14:11:43;17.52;;;7.53;;
57593;SDS011;43423;46.510;6.686;2022-12-07T14:14:10;16.63;;;7.43;;
57593;SDS011;43423;46.510;6.686;2022-12-07T14:16:40;17.90;;;7.53;;
57593;SDS011;43423;46.510;6.686;2022-12-07T14:22:18;21.67;;;8.07;;
57593;SDS011;43423;46.510;6.686;2022-12-07T14:24:46;20.67;;;8.85;;
57593;SDS011;43423;46.510;6.686;2022-12-07T14:27:19;19.77;;;8.90;;
57593;SDS011;43423;46.510;6.686;2022-12-07T14:29:46;20.02;;;8.98;;
57593;SDS011;43423;46.510;6.686;2022-12-07T14:32:20;20.60;;;9.20;;
57593;SDS011;43423;46.510;6.686;2022-12-07T14:35:14;23.83;;;10.18;;
57593;SDS011;43423;46.510;6.686;2022-12-07T14:37:40;22.00;;;9.95;;
57593;SDS011;43423;46.510;6.686;2022-12-07T14:40:13;23.60;;;9.93;;
57593;SDS011;43423;46.510;6.686;2022-12-07T14:42:41;21.58;;;9.00;;
57593;SDS011;43423;46.510;6.686;2022-12-07T14:45:18;22.60;;;9.15;;
57593;SDS011;43423;46.510;6.686;2022-12-07T14:47:46;21.67;;;9.85;;
57593;SDS011;43423;46.510;6.686;2022-12-07T14:50:13;24.88;;;11.15;;
57593;SDS011;43423;46.510;6.686;2022-12-07T14:52:39;22.13;;;9.57;;
57593;SDS011;43423;46.510;6.686;2022-12-07T14:55:13;26.27;;;10.15;;
57593;SDS011;43423;46.510;6.686;2022-12-07T14:57:42;20.70;;;9.90;;
57593;SDS011;43423;46.510;6.686;2022-12-07T15:00:09;19.42;;;8.75;;
57593;SDS011;43423;46.510;6.686;2022-12-07T15:02:39;21.13;;;9.52;;
57593;SDS011;43423;46.510;6.686;2022-12-07T15:05:04;20.95;;;9.60;;
57593;SDS011;43423;46.510;6.686;2022-12-07T15:07:30;16.88;;;8.43;;
57593;SDS011;43423;46.510;6.686;2022-12-07T15:09:56;20.90;;;9.30;;
57593;SDS011;43423;46.510;6.686;2022-12-07T15:12:21;23.35;;;9.20;;
57593;SDS011;43423;46.510;6.686;2022-12-07T15:14:48;20.75;;;9.70;;
57593;SDS011;43423;46.510;6.686;2022-12-07T15:17:14;21.75;;;9.05;;
57593;SDS011;43423;46.510;6.686;2022-12-07T15:19:39;21.95;;;9.48;;
57593;SDS011;43423;46.510;6.686;2022-12-07T15:22:05;19.52;;;8.15;;
57593;SDS011;43423;46.510;6.686;2022-12-07T15:24:30;20.17;;;9.48;;
57593;SDS011;43423;46.510;6.686;2022-12-07T15:26:56;20.95;;;8.70;;
57593;SDS011;43423;46.510;6.686;2022-12-07T15:29:22;20.70;;;8.43;;
57593;SDS011;43423;46.510;6.686;2022-12-07T15:31:48;20.88;;;10.10;;
57593;SDS011;43423;46.510;6.686;2022-12-07T15:34:14;21.70;;;8.77;;
57593;SDS011;43423;46.510;6.686;2022-12-07T15:36:40;17.67;;;8.35;;
57593;SDS011;43423;46.510;6.686;2022-12-07T15:39:05;21.60;;;8.98;;
57593;SDS011;43423;46.510;6.686;2022-12-07T15:41:31;18.70;;;8.45;;
57593;SDS011;43423;46.510;6.686;2022-12-07T15:43:57;21.33;;;8.25;;
57593;SDS011;43423;46.510;6.686;2022-12-07T15:46:41;18.10;;;7.85;;
57593;SDS011;43423;46.510;6.686;2022-12-07T15:49:15;18.85;;;8.38;;
57593;SDS011;43423;46.510;6.686;2022-12-07T15:51:43;20.27;;;8.50;;
57593;SDS011;43423;46.510;6.686;2022-12-07T15:54:13;22.60;;;9.35;;
57593;SDS011;43423;46.510;6.686;2022-12-07T15:56:44;26.35;;;10.57;;
57593;SDS011;43423;46.510;6.686;2022-12-07T15:59:10;26.35;;;9.93;;
57593;SDS011;43423;46.510;6.686;2022-12-07T16:01:36;17.80;;;8.27;;
57593;SDS011;43423;46.510;6.686;2022-12-07T16:04:01;17.75;;;8.15;;
57593;SDS011;43423;46.510;6.686;2022-12-07T16:06:27;22.50;;;8.43;;
57593;SDS011;43423;46.510;6.686;2022-12-07T16:08:52;21.67;;;8.23;;
57593;SDS011;43423;46.510;6.686;2022-12-07T16:11:18;23.75;;;10.00;;
57593;SDS011;43423;46.510;6.686;2022-12-07T16:13:44;26.25;;;10.13;;
57593;SDS011;43423;46.510;6.686;2022-12-07T16:16:10;22.60;;;9.30;;
57593;SDS011;43423;46.510;6.686;2022-12-07T16:18:38;26.10;;;9.85;;
57593;SDS011;43423;46.510;6.686;2022-12-07T16:21:04;21.80;;;8.05;;
57593;SDS011;43423;46.510;6.686;2022-12-07T16:23:30;20.70;;;8.13;;
57593;SDS011;43423;46.510;6.686;2022-12-07T16:26:03;21.08;;;8.43;;
57593;SDS011;43423;46.510;6.686;2022-12-07T16:28:36;21.30;;;8.25;;
57593;SDS011;43423;46.510;6.686;2022-12-07T16:31:03;21.33;;;8.40;;
57593;SDS011;43423;46.510;6.686;2022-12-07T16:33:32;20.63;;;8.82;;
57593;SDS011;43423;46.510;6.686;2022-12-07T16:35:59;22.70;;;8.80;;
57593;SDS011;43423;46.510;6.686;2022-12-07T16:38:26;22.02;;;9.27;;
57593;SDS011;43423;46.510;6.686;2022-12-07T16:40:52;23.98;;;8.65;;
57593;SDS011;43423;46.510;6.686;2022-12-07T16:43:18;21.55;;;8.30;;
57593;SDS011;43423;46.510;6.686;2022-12-07T16:45:45;17.08;;;7.05;;
57593;SDS011;43423;46.510;6.686;2022-12-07T16:48:12;21.17;;;7.18;;
57593;SDS011;43423;46.510;6.686;2022-12-07T16:50:38;17.10;;;7.82;;
57593;SDS011;43423;46.510;6.686;2022-12-07T16:53:06;21.38;;;7.85;;
57593;SDS011;43423;46.510;6.686;2022-12-07T16:55:39;17.77;;;7.50;;
57593;SDS011;43423;46.510;6.686;2022-12-07T16:58:06;19.35;;;8.18;;
57593;SDS011;43423;46.510;6.686;2022-12-07T17:00:32;18.40;;;7.82;;